Time;durP1;ratioP1;P1;durP2;ratioP2;P2;SDS_P1;SDS_P2;PMS_P1;PMS_P2;Temp;Humidity;BMP_temperature;BMP_pressure;BME280_temperature;BME280_humidity;BME280_pressure;Samples;Min_cycle;Max_cycle;Signal;HPM_P1;HPM_P2
2023/01/17 00:02:07;;;;;;;32.25;29.45;;;;;;;;;;5027880;28;20025;-59
2023/01/17 00:10:11;;;;;;;31.70;29.00;;;;;;;;;;5027623;28;20790;-60
2023/01/17 00:12:38;;;;;;;32.78;30.02;;;;;;;;;;5027627;28;20033;-60
2023/01/17 00:15:05;;;;;;;30.25;27.77;;;;;;;;;;5028163;28;20025;-58
2023/01/17 00:17:31;;;;;;;33.25;30.35;;;;;;;;;;4680251;28;9999926;-56
2023/01/17 01:35:11;;;;;;;29.00;26.50;;;;;;;;;;5014267;28;20161;-60
2023/01/17 01:37:37;;;;;;;27.70;25.40;;;;;;;;;;5014000;28;20477;-61
2023/01/17 01:40:03;;;;;;;27.63;25.15;;;;;;;;;;5014131;28;20032;-60
2023/01/17 01:42:29;;;;;;;27.65;25.25;;;;;;;;;;5013736;28;20025;-60
2023/01/17 01:44:55;;;;;;;27.30;25.00;;;;;;;;;;5012411;28;20018;-60
2023/01/17 01:47:24;;;;;;;27.58;25.27;;;;;;;;;;5013607;28;20117;-60
2023/01/17 01:49:50;;;;;;;27.98;25.67;;;;;;;;;;5012764;28;20429;-59
2023/01/17 01:52:17;;;;;;;27.85;25.40;;;;;;;;;;5013558;28;20029;-60
2023/01/17 01:54:46;;;;;;;26.95;24.67;;;;;;;;;;5013336;28;20029;-59
2023/01/17 01:57:16;;;;;;;26.27;24.08;;;;;;;;;;5013356;28;20041;-61
2023/01/17 01:59:45;;;;;;;27.45;25.05;;;;;;;;;;5013401;28;20529;-61
2023/01/17 02:02:11;;;;;;;27.70;25.30;;;;;;;;;;5013236;28;20025;-60
2023/01/17 02:04:38;;;;;;;26.27;24.08;;;;;;;;;;5011859;28;20112;-60
2023/01/17 02:07:07;;;;;;;24.88;22.58;;;;;;;;;;5013199;28;20030;-60
2023/01/17 02:09:33;;;;;;;23.73;21.63;;;;;;;;;;5013397;28;20390;-59
2023/01/17 02:11:59;;;;;;;23.95;21.75;;;;;;;;;;5013153;28;20050;-60
2023/01/17 02:14:25;;;;;;;25.20;23.00;;;;;;;;;;5012973;28;20026;-60
2023/01/17 02:16:51;;;;;;;24.25;22.15;;;;;;;;;;5013168;28;20076;-60
2023/01/17 02:19:38;;;;;;;23.42;21.42;;;;;;;;;;5013040;28;20022;-60
2023/01/17 02:22:07;;;;;;;23.55;21.55;;;;;;;;;;5011558;28;20036;-61
2023/01/17 02:24:55;;;;;;;23.63;21.63;;;;;;;;;;5012620;28;20025;-60
2023/01/17 02:27:21;;;;;;;23.55;21.55;;;;;;;;;;5012900;28;20520;-60
2023/01/17 02:30:05;;;;;;;23.15;21.15;;;;;;;;;;5012910;28;20105;-60
2023/01/17 02:32:36;;;;;;;23.88;21.77;;;;;;;;;;5012638;28;20018;-60
2023/01/17 02:35:06;;;;;;;23.42;21.42;;;;;;;;;;5012627;28;20056;-61
2023/01/17 02:37:44;;;;;;;23.60;21.60;;;;;;;;;;5012690;28;20111;-61
2023/01/17 02:40:17;;;;;;;23.02;21.02;;;;;;;;;;5012680;28;20079;-60
2023/01/17 02:42:46;;;;;;;22.80;20.80;;;;;;;;;;5012437;28;20487;-60
2023/01/17 02:45:19;;;;;;;22.08;20.17;;;;;;;;;;5011832;28;20025;-60
2023/01/17 02:47:45;;;;;;;21.42;19.50;;;;;;;;;;5012582;28;20018;-60
2023/01/17 02:50:19;;;;;;;20.45;18.55;;;;;;;;;;5012694;28;20018;-58
2023/01/17 02:52:57;;;;;;;20.70;18.70;;;;;;;;;;5011412;28;20418;-60
2023/01/17 02:55:27;;;;;;;21.50;19.60;;;;;;;;;;5012349;28;20501;-61
2023/01/17 02:57:56;;;;;;;21.35;19.45;;;;;;;;;;5012456;28;20033;-60
2023/01/17 03:00:31;;;;;;;21.10;19.20;;;;;;;;;;5011978;28;20041;-61
2023/01/17 03:03:03;;;;;;;20.17;18.35;;;;;;;;;;5012319;28;20025;-57
2023/01/17 03:05:36;;;;;;;20.08;18.17;;;;;;;;;;5012310;28;20026;-60
2023/01/17 03:08:03;;;;;;;19.92;18.13;;;;;;;;;;5012583;28;20018;-60
2023/01/17 03:10:31;;;;;;;20.73;18.83;;;;;;;;;;5012209;28;20036;-60
2023/01/17 03:12:57;;;;;;;21.05;19.15;;;;;;;;;;5011934;28;20030;-60
2023/01/17 03:15:24;;;;;;;20.67;18.67;;;;;;;;;;5011819;28;20033;-60
2023/01/17 03:17:51;;;;;;;20.48;18.58;;;;;;;;;;5011992;28;20022;-60
2023/01/17 03:20:17;;;;;;;20.52;18.58;;;;;;;;;;5012115;28;20026;-58
2023/01/17 03:22:43;;;;;;;19.40;17.60;;;;;;;;;;5011899;28;20427;-61
2023/01/17 03:25:09;;;;;;;19.17;17.38;;;;;;;;;;5011905;28;20121;-61
2023/01/17 03:27:35;;;;;;;19.40;17.60;;;;;;;;;;5012062;28;20162;-60
2023/01/17 03:30:01;;;;;;;19.08;17.27;;;;;;;;;;5011948;28;20348;-59
2023/01/17 03:32:27;;;;;;;18.92;17.13;;;;;;;;;;5011889;28;20033;-60
2023/01/17 03:34:53;;;;;;;19.33;17.52;;;;;;;;;;5011661;28;20022;-61
2023/01/17 03:37:19;;;;;;;19.42;17.63;;;;;;;;;;5011910;28;20434;-61
2023/01/17 03:39:45;;;;;;;18.85;17.05;;;;;;;;;;5011856;28;20129;-61
2023/01/17 03:42:11;;;;;;;18.77;16.98;;;;;;;;;;5011525;28;20105;-61
2023/01/17 03:44:37;;;;;;;18.77;16.98;;;;;;;;;;5010282;28;20501;-61
2023/01/17 03:47:03;;;;;;;17.90;16.10;;;;;;;;;;5011588;28;20022;-61
2023/01/17 03:49:30;;;;;;;18.50;16.70;;;;;;;;;;5011477;28;20496;-60
2023/01/17 03:51:56;;;;;;;18.60;16.80;;;;;;;;;;5010154;28;20243;-61
2023/01/17 03:54:22;;;;;;;18.65;16.75;;;;;;;;;;5015975;28;20490;-57
2023/01/17 03:56:48;;;;;;;19.77;17.88;;;;;;;;;;5023589;28;20030;-61
2023/01/17 03:59:14;;;;;;;19.67;17.88;;;;;;;;;;5013734;28;20029;-60
2023/01/17 04:01:40;;;;;;;21.20;19.20;;;;;;;;;;5011380;28;20038;-60
2023/01/17 04:04:06;;;;;;;20.35;18.45;;;;;;;;;;5011112;28;20026;-60
2023/01/17 04:06:31;;;;;;;21.33;19.42;;;;;;;;;;5011457;28;20121;-60
2023/01/17 04:08:57;;;;;;;20.00;18.10;;;;;;;;;;5010773;28;20021;-61
2023/01/17 04:11:23;;;;;;;20.27;18.38;;;;;;;;;;5011553;28;20103;-61
2023/01/17 04:13:49;;;;;;;19.70;17.77;;;;;;;;;;5015257;28;20030;-61
2023/01/17 04:16:16;;;;;;;19.58;17.77;;;;;;;;;;5015552;28;20546;-60
2023/01/17 04:18:43;;;;;;;19.50;17.60;;;;;;;;;;5014329;28;20068;-60
2023/01/17 04:21:09;;;;;;;19.23;17.42;;;;;;;;;;5015085;28;20018;-60
2023/01/17 04:23:35;;;;;;;19.17;17.38;;;;;;;;;;5014848;28;20022;-61
2023/01/17 04:26:02;;;;;;;19.35;17.55;;;;;;;;;;5015210;28;20022;-61
2023/01/17 04:28:28;;;;;;;18.75;16.95;;;;;;;;;;5015131;28;20101;-61
2023/01/17 04:30:58;;;;;;;18.92;17.08;;;;;;;;;;5014902;28;20049;-61
2023/01/17 04:33:23;;;;;;;19.77;17.88;;;;;;;;;;5014777;28;20513;-60
2023/01/17 04:35:49;;;;;;;18.90;17.05;;;;;;;;;;5013614;28;20133;-60
2023/01/17 04:38:15;;;;;;;19.17;17.38;;;;;;;;;;5015060;28;20036;-60
2023/01/17 04:40:41;;;;;;;18.92;17.13;;;;;;;;;;5014600;28;20036;-59
2023/01/17 04:43:07;;;;;;;19.40;17.50;;;;;;;;;;5014471;28;20105;-60
2023/01/17 04:45:33;;;;;;;21.00;18.95;;;;;;;;;;5014588;28;20080;-61
2023/01/17 04:48:03;;;;;;;20.40;18.50;;;;;;;;;;5014427;28;20018;-60
2023/01/17 04:50:29;;;;;;;21.10;19.10;;;;;;;;;;5014402;28;20048;-60
2023/01/17 04:52:55;;;;;;;21.17;19.10;;;;;;;;;;5013056;28;20022;-61
2023/01/17 04:55:21;;;;;;;21.60;19.60;;;;;;;;;;5014224;28;20052;-60
2023/01/17 04:57:47;;;;;;;21.17;19.15;;;;;;;;;;5015500;28;20033;-60
2023/01/17 05:00:14;;;;;;;22.33;20.17;;;;;;;;;;5015312;28;20486;-60
2023/01/17 05:02:40;;;;;;;22.50;20.42;;;;;;;;;;5013977;28;20026;-59
2023/01/17 05:05:06;;;;;;;23.73;21.67;;;;;;;;;;5013949;28;20044;-59
2023/01/17 05:07:32;;;;;;;24.48;22.38;;;;;;;;;;5014163;28;20021;-60
2023/01/17 05:10:01;;;;;;;24.13;22.02;;;;;;;;;;5014062;28;20105;-58
2023/01/17 05:12:28;;;;;;;24.77;22.58;;;;;;;;;;5013953;28;20038;-58
2023/01/17 05:14:54;;;;;;;26.08;23.75;;;;;;;;;;5013886;28;20570;-60
2023/01/17 05:17:20;;;;;;;26.25;23.90;;;;;;;;;;5014115;28;20057;-60
2023/01/17 05:19:46;;;;;;;26.38;24.08;;;;;;;;;;5020309;28;20041;-60
2023/01/17 05:22:16;;;;;;;26.10;23.60;;;;;;;;;;5033601;28;20048;-60
2023/01/17 05:24:42;;;;;;;25.25;22.90;;;;;;;;;;5033381;28;20018;-60
2023/01/17 05:27:08;;;;;;;26.30;23.80;;;;;;;;;;5034025;28;20121;-60
2023/01/17 05:29:34;;;;;;;26.80;24.35;;;;;;;;;;5032452;28;20128;-60
2023/01/17 05:32:00;;;;;;;27.08;24.38;;;;;;;;;;5033540;28;20529;-59
2023/01/17 05:34:26;;;;;;;25.70;23.15;;;;;;;;;;5033557;28;20108;-62
2023/01/17 05:36:52;;;;;;;26.50;23.80;;;;;;;;;;5032499;28;20117;-59
2023/01/17 05:39:18;;;;;;;25.08;22.65;;;;;;;;;;5033481;28;20128;-58
2023/01/17 05:41:44;;;;;;;25.95;23.55;;;;;;;;;;5033748;28;20083;-58
2023/01/17 05:44:10;;;;;;;26.25;23.33;;;;;;;;;;5033760;28;20025;-59
2023/01/17 05:46:36;;;;;;;26.30;23.80;;;;;;;;;;5033630;28;20053;-59
2023/01/17 05:49:03;;;;;;;26.05;23.25;;;;;;;;;;5033135;28;20698;-59
2023/01/17 05:51:29;;;;;;;25.02;22.17;;;;;;;;;;5033224;28;20029;-60
2023/01/17 05:53:55;;;;;;;24.70;22.42;;;;;;;;;;5032778;28;20102;-60
2023/01/17 05:56:21;;;;;;;23.20;20.77;;;;;;;;;;5032939;28;20033;-60
2023/01/17 05:58:47;;;;;;;23.77;21.48;;;;;;;;;;5035344;28;20481;-60
2023/01/17 06:01:13;;;;;;;24.75;22.17;;;;;;;;;;5039233;28;20041;-60
2023/01/17 06:03:39;;;;;;;23.85;21.42;;;;;;;;;;5034265;28;20113;-57
2023/01/17 06:06:05;;;;;;;24.77;22.33;;;;;;;;;;5032778;28;20068;-60
2023/01/17 06:08:31;;;;;;;23.30;20.90;;;;;;;;;;5032790;28;20030;-57
2023/01/17 06:10:59;;;;;;;24.30;21.98;;;;;;;;;;5032689;28;20021;-60
2023/01/17 06:13:26;;;;;;;24.10;21.80;;;;;;;;;;5032487;28;20030;-60
2023/01/17 06:15:52;;;;;;;24.90;22.40;;;;;;;;;;5032598;28;20067;-60
2023/01/17 06:18:18;;;;;;;26.80;24.15;;;;;;;;;;5032616;28;20025;-59
2023/01/17 06:20:44;;;;;;;25.17;22.75;;;;;;;;;;5038700;23;20575;-60
2023/01/17 06:23:11;;;;;;;25.05;22.55;;;;;;;;;;5027185;28;20125;-59
2023/01/17 06:25:38;;;;;;;26.48;24.08;;;;;;;;;;5012722;28;20084;-59
2023/01/17 06:28:06;;;;;;;26.42;23.58;;;;;;;;;;5027415;28;20037;-57
2023/01/17 06:30:32;;;;;;;26.35;23.50;;;;;;;;;;5012389;28;20520;-60
2023/01/17 06:32:58;;;;;;;27.70;22.55;;;;;;;;;;5012480;28;20112;-61
2023/01/17 06:35:24;;;;;;;26.02;23.45;;;;;;;;;;5011430;28;20080;-59
2023/01/17 06:37:54;;;;;;;25.17;22.58;;;;;;;;;;5010997;28;20124;-60
2023/01/17 06:40:21;;;;;;;25.27;22.20;;;;;;;;;;5010606;28;20022;-59
2023/01/17 06:42:47;;;;;;;24.27;21.88;;;;;;;;;;5011692;28;20026;-60
2023/01/17 06:45:13;;;;;;;25.63;23.05;;;;;;;;;;5010465;28;20474;-60
2023/01/17 06:47:40;;;;;;;25.23;22.65;;;;;;;;;;5012027;28;20022;-60
2023/01/17 06:50:07;;;;;;;25.63;22.90;;;;;;;;;;5010204;28;20024;-62
2023/01/17 06:52:33;;;;;;;23.98;21.70;;;;;;;;;;5008265;28;20026;-60
2023/01/17 06:54:59;;;;;;;24.17;21.58;;;;;;;;;;5009486;28;20037;-59
2023/01/17 06:57:25;;;;;;;22.70;20.45;;;;;;;;;;5011280;28;20096;-61
2023/01/17 06:59:51;;;;;;;23.92;21.48;;;;;;;;;;5011512;28;20401;-60
2023/01/17 07:02:17;;;;;;;23.17;20.88;;;;;;;;;;5011549;28;20024;-60
2023/01/17 07:04:43;;;;;;;23.52;20.90;;;;;;;;;;5011260;28;20022;-60
2023/01/17 07:07:09;;;;;;;22.98;20.67;;;;;;;;;;5011525;28;20022;-55
2023/01/17 07:09:35;;;;;;;23.33;20.85;;;;;;;;;;5011015;28;20026;-61
2023/01/17 07:12:01;;;;;;;22.38;20.00;;;;;;;;;;5011323;28;20026;-56
2023/01/17 07:14:28;;;;;;;23.55;20.88;;;;;;;;;;5010894;28;20032;-54
2023/01/17 07:16:54;;;;;;;24.38;21.85;;;;;;;;;;5011284;28;20034;-60
2023/01/17 07:19:21;;;;;;;23.70;21.17;;;;;;;;;;5010996;28;20034;-59
2023/01/17 07:21:51;;;;;;;25.63;21.55;;;;;;;;;;5009643;28;20029;-60
2023/01/17 07:24:17;;;;;;;24.92;22.33;;;;;;;;;;5010719;28;20034;-56
2023/01/17 07:26:43;;;;;;;24.00;21.60;;;;;;;;;;5011068;28;20020;-62
2023/01/17 07:29:09;;;;;;;23.23;20.77;;;;;;;;;;5009850;28;20018;-61
2023/01/17 07:31:37;;;;;;;24.45;20.40;;;;;;;;;;5011106;28;20037;-59
2023/01/17 07:34:03;;;;;;;22.87;20.67;;;;;;;;;;5009234;28;20072;-56
2023/01/17 07:36:29;;;;;;;22.45;20.15;;;;;;;;;;5011246;28;20042;-54
2023/01/17 07:38:55;;;;;;;23.55;20.98;;;;;;;;;;5010098;28;20406;-54
2023/01/17 07:41:21;;;;;;;23.00;20.48;;;;;;;;;;5011324;28;20026;-58
2023/01/17 07:43:48;;;;;;;21.48;19.27;;;;;;;;;;5010531;28;20022;-59
2023/01/17 07:46:14;;;;;;;24.38;21.02;;;;;;;;;;5012683;28;20490;-50
2023/01/17 07:48:40;;;;;;;23.17;20.67;;;;;;;;;;5015029;28;20038;-60
2023/01/17 07:51:06;;;;;;;20.90;18.80;;;;;;;;;;5015819;28;20030;-59
2023/01/17 07:53:32;;;;;;;22.63;19.83;;;;;;;;;;5013745;28;20022;-60
2023/01/17 07:56:06;;;;;;;21.75;19.55;;;;;;;;;;5014852;28;20030;-59
2023/01/17 07:58:32;;;;;;;21.92;19.73;;;;;;;;;;5014970;28;20030;-58
2023/01/17 08:01:05;;;;;;;21.05;18.60;;;;;;;;;;5014129;28;20061;-60
2023/01/17 08:03:34;;;;;;;23.15;18.98;;;;;;;;;;5014805;28;20107;-61
2023/01/17 08:06:00;;;;;;;33.30;20.05;;;;;;;;;;5013136;28;20034;-58
2023/01/17 08:08:27;;;;;;;23.17;20.63;;;;;;;;;;5013962;28;20029;-60
2023/01/17 08:10:53;;;;;;;23.77;20.58;;;;;;;;;;5015022;28;20033;-59
2023/01/17 08:13:20;;;;;;;22.55;20.13;;;;;;;;;;5013376;28;20028;-60
2023/01/17 08:15:48;;;;;;;19.98;17.88;;;;;;;;;;5013898;28;20355;-61
2023/01/17 08:18:14;;;;;;;21.93;19.17;;;;;;;;;;5013987;28;20500;-61
2023/01/17 08:20:42;;;;;;;23.17;20.77;;;;;;;;;;5013379;28;20076;-61
2023/01/17 08:23:08;;;;;;;27.58;20.13;;;;;;;;;;5013386;28;20026;-59
2023/01/17 08:25:34;;;;;;;25.33;21.50;;;;;;;;;;5015210;28;20042;-61
2023/01/17 08:28:00;;;;;;;22.85;20.50;;;;;;;;;;5014917;28;20024;-59
2023/01/17 08:30:26;;;;;;;21.25;19.00;;;;;;;;;;5013296;28;20026;-59
2023/01/17 08:32:53;;;;;;;23.20;20.17;;;;;;;;;;5014842;28;20080;-61
2023/01/17 08:35:19;;;;;;;23.95;20.65;;;;;;;;;;5013263;28;20037;-60
2023/01/17 08:37:46;;;;;;;22.98;20.60;;;;;;;;;;5014800;28;20079;-59
2023/01/17 08:40:15;;;;;;;24.77;21.30;;;;;;;;;;5013374;28;20030;-59
2023/01/17 08:42:42;;;;;;;23.98;20.58;;;;;;;;;;5014739;28;20025;-61
2023/01/17 08:45:10;;;;;;;27.33;21.95;;;;;;;;;;5012826;28;20129;-61
2023/01/17 08:47:36;;;;;;;23.65;20.75;;;;;;;;;;5014035;28;20029;-60
2023/01/17 08:50:05;;;;;;;22.90;20.35;;;;;;;;;;5014868;28;20053;-65
2023/01/17 08:52:32;;;;;;;24.33;20.70;;;;;;;;;;5014722;28;20029;-65
2023/01/17 08:54:58;;;;;;;24.95;20.38;;;;;;;;;;5014117;28;20022;-62
2023/01/17 08:57:24;;;;;;;24.60;20.92;;;;;;;;;;5013761;28;20457;-65
2023/01/17 08:59:50;;;;;;;23.67;21.15;;;;;;;;;;5014345;28;20064;-65
2023/01/17 09:02:17;;;;;;;22.65;19.13;;;;;;;;;;5014578;28;20053;-63
2023/01/17 09:04:44;;;;;;;24.92;20.48;;;;;;;;;;5012651;28;20029;-63
2023/01/17 09:07:10;;;;;;;26.95;21.30;;;;;;;;;;5014398;28;20045;-64
2023/01/17 09:09:36;;;;;;;25.40;21.38;;;;;;;;;;5014282;28;20095;-65
2023/01/17 09:12:02;;;;;;;26.42;21.80;;;;;;;;;;5012980;28;20076;-65
2023/01/17 09:14:28;;;;;;;23.85;21.25;;;;;;;;;;5013947;28;20026;-65
2023/01/17 09:16:54;;;;;;;25.23;20.23;;;;;;;;;;5014074;28;20056;-64
2023/01/17 09:19:20;;;;;;;28.23;20.20;;;;;;;;;;5012552;28;20069;-65
2023/01/17 09:21:46;;;;;;;27.52;21.05;;;;;;;;;;5013724;28;20037;-65
2023/01/17 09:24:12;;;;;;;24.08;19.92;;;;;;;;;;5012465;28;20041;-64
2023/01/17 09:26:38;;;;;;;22.98;18.92;;;;;;;;;;5012591;28;20374;-63
2023/01/17 09:29:04;;;;;;;29.38;20.73;;;;;;;;;;5012490;28;20427;-64
2023/01/17 09:31:30;;;;;;;25.10;19.83;;;;;;;;;;5013680;28;20092;-65
2023/01/17 09:33:57;;;;;;;23.92;19.90;;;;;;;;;;5013462;28;20040;-63
2023/01/17 09:36:25;;;;;;;24.63;19.27;;;;;;;;;;5013636;28;20088;-65
2023/01/17 09:38:56;;;;;;;24.33;19.88;;;;;;;;;;5012323;28;20026;-63
2023/01/17 09:41:27;;;;;;;33.00;19.33;;;;;;;;;;5013593;28;20031;-63
2023/01/17 09:44:00;;;;;;;28.00;19.02;;;;;;;;;;5011942;28;20033;-64
2023/01/17 09:46:29;;;;;;;23.38;18.77;;;;;;;;;;5013142;28;20021;-65
2023/01/17 09:49:09;;;;;;;22.35;17.40;;;;;;;;;;5013450;28;20249;-64
2023/01/17 09:51:35;;;;;;;21.00;16.75;;;;;;;;;;5013306;28;20033;-64
2023/01/17 09:54:01;;;;;;;29.33;16.75;;;;;;;;;;5012938;28;20030;-64
2023/01/17 09:56:40;;;;;;;24.10;17.40;;;;;;;;;;5013036;28;20084;-65
2023/01/17 09:59:20;;;;;;;26.92;17.83;;;;;;;;;;5013068;28;20078;-65
2023/01/17 10:01:58;;;;;;;26.10;16.98;;;;;;;;;;5013241;28;20363;-65
2023/01/17 10:04:32;;;;;;;26.60;17.20;;;;;;;;;;5012949;28;20416;-65
2023/01/17 10:06:58;;;;;;;25.40;16.20;;;;;;;;;;5011988;28;20026;-65
2023/01/17 10:09:36;;;;;;;24.63;16.13;;;;;;;;;;5012172;28;20033;-64
2023/01/17 10:12:02;;;;;;;28.10;18.70;;;;;;;;;;5012013;28;20076;-64
2023/01/17 10:14:35;;;;;;;34.08;19.25;;;;;;;;;;5012878;28;20036;-65
2023/01/17 10:17:07;;;;;;;28.38;19.48;;;;;;;;;;5011990;28;20029;-64
2023/01/17 10:19:42;;;;;;;28.85;19.55;;;;;;;;;;5011446;28;20037;-65
2023/01/17 10:22:24;;;;;;;24.92;16.10;;;;;;;;;;5012818;28;20116;-61
2023/01/17 10:25:02;;;;;;;29.60;20.23;;;;;;;;;;5011562;28;20054;-65
2023/01/17 10:27:33;;;;;;;27.25;18.15;;;;;;;;;;5012467;28;20054;-65
2023/01/17 10:30:10;;;;;;;27.35;17.95;;;;;;;;;;5011281;28;20482;-62
2023/01/17 10:32:41;;;;;;;28.60;17.17;;;;;;;;;;5012471;28;20050;-63
2023/01/17 10:35:15;;;;;;;25.83;16.77;;;;;;;;;;5012381;28;20030;-64
2023/01/17 10:37:43;;;;;;;26.13;17.45;;;;;;;;;;5012800;28;20084;-64
2023/01/17 10:40:15;;;;;;;28.92;18.48;;;;;;;;;;5012555;28;20026;-65
2023/01/17 10:42:49;;;;;;;29.67;19.45;;;;;;;;;;5010591;28;20092;-64
2023/01/17 10:45:15;;;;;;;28.38;17.73;;;;;;;;;;5010519;28;20045;-64
2023/01/17 10:47:45;;;;;;;27.60;17.88;;;;;;;;;;5010667;28;20022;-62
2023/01/17 10:50:16;;;;;;;29.02;18.00;;;;;;;;;;5012074;28;20037;-63
2023/01/17 10:52:49;;;;;;;25.33;16.48;;;;;;;;;;5012162;28;20037;-64
2023/01/17 10:55:18;;;;;;;30.40;18.05;;;;;;;;;;5011730;28;20114;-68
2023/01/17 10:57:45;;;;;;;23.42;15.55;;;;;;;;;;5013830;28;20441;-65
2023/01/17 11:00:24;;;;;;;31.35;18.25;;;;;;;;;;5017970;28;20029;-68
2023/01/17 11:02:51;;;;;;;34.75;20.05;;;;;;;;;;5020555;28;20141;-64
2023/01/17 11:05:27;;;;;;;29.48;19.10;;;;;;;;;;5012042;28;20033;-64
2023/01/17 11:08:23;;;;;;;31.17;18.67;;;;;;;;;;5013277;28;20026;-64
2023/01/17 11:10:52;;;;;;;33.97;18.23;;;;;;;;;;5007874;28;20453;-62
2023/01/17 11:13:18;;;;;;;26.73;15.40;;;;;;;;;;4666224;28;10000638;-65
2023/01/17 11:15:47;;;;;;;27.80;18.90;;;;;;;;;;5016044;28;20126;-64
2023/01/17 11:18:20;;;;;;;30.80;19.10;;;;;;;;;;5019891;28;20010;-64
2023/01/17 11:20:48;;;;;;;28.52;18.15;;;;;;;;;;5021369;28;20133;-62
2023/01/17 11:23:23;;;;;;;31.13;19.00;;;;;;;;;;5021061;28;20101;-65
2023/01/17 11:25:51;;;;;;;30.23;17.92;;;;;;;;;;5022017;28;20030;-64
2023/01/17 11:28:19;;;;;;;24.85;15.82;;;;;;;;;;5014986;28;20357;-64
2023/01/17 11:30:54;;;;;;;26.48;15.80;;;;;;;;;;5010834;28;20391;-64
2023/01/17 11:33:46;;;;;;;24.58;15.93;;;;;;;;;;5010956;28;20021;-63
2023/01/17 11:36:16;;;;;;;26.75;13.98;;;;;;;;;;4993207;28;20033;-65
2023/01/17 11:38:53;;;;;;;24.60;14.85;;;;;;;;;;5011317;28;20030;-65
2023/01/17 11:41:19;;;;;;;28.50;16.17;;;;;;;;;;5011433;28;20076;-65
2023/01/17 11:43:56;;;;;;;25.55;16.15;;;;;;;;;;5011367;28;20479;-65
2023/01/17 11:46:22;;;;;;;25.90;15.70;;;;;;;;;;5011272;28;20041;-65
2023/01/17 11:48:52;;;;;;;28.45;16.45;;;;;;;;;;5011004;28;20026;-64
2023/01/17 11:51:29;;;;;;;24.08;13.73;;;;;;;;;;5010050;28;20026;-62
2023/01/17 11:54:07;;;;;;;24.67;15.65;;;;;;;;;;5010717;28;20122;-64
2023/01/17 11:56:34;;;;;;;;;;;;;;;;;;5010122;28;20030;-63
2023/01/17 11:59:09;;;;;;;30.13;14.88;;;;;;;;;;5009758;28;19964;-64
2023/01/17 12:01:35;;;;;;;24.08;14.25;;;;;;;;;;5010854;28;20029;-65
2023/01/17 12:04:19;;;;;;;24.95;15.07;;;;;;;;;;5010799;28;20032;-65
2023/01/17 12:06:54;;;;;;;27.23;16.52;;;;;;;;;;5010947;28;20026;-64
2023/01/17 12:09:36;;;;;;;24.90;15.73;;;;;;;;;;5010954;28;20026;-62
2023/01/17 12:15:24;;;;;;;22.42;14.52;;;;;;;;;;5011058;28;20025;-63
2023/01/17 12:18:09;;;;;;;25.88;14.90;;;;;;;;;;5010665;28;20026;-63
2023/01/17 12:20:48;;;;;;;24.17;14.18;;;;;;;;;;5009411;28;20099;-63
2023/01/17 12:23:14;;;;;;;23.50;14.05;;;;;;;;;;5010609;28;20037;-65
2023/01/17 12:25:54;;;;;;;28.25;15.57;;;;;;;;;;5010658;28;20104;-64
2023/01/17 12:28:32;;;;;;;23.55;15.07;;;;;;;;;;5040111;23;20500;-65
2023/01/17 12:31:05;;;;;;;29.52;15.50;;;;;;;;;;5050553;28;20033;-63
2023/01/17 12:33:49;;;;;;;23.85;13.45;;;;;;;;;;5051771;28;20437;-64
2023/01/17 12:36:21;;;;;;;23.77;14.18;;;;;;;;;;4337610;28;10001397;-63
2023/01/17 12:38:48;;;;;;;26.48;14.40;;;;;;;;;;5044259;28;20119;-62
2023/01/17 12:41:35;;;;;;;22.27;14.27;;;;;;;;;;5052117;28;20037;-64
2023/01/17 12:44:01;;;;;;;21.65;14.18;;;;;;;;;;5051667;28;20028;-63
2023/01/17 12:46:37;;;;;;;23.33;13.98;;;;;;;;;;5051871;28;20687;-62
2023/01/17 12:49:11;;;;;;;26.80;13.13;;;;;;;;;;5050445;28;20021;-63
2023/01/17 12:51:39;;;;;;;23.40;13.32;;;;;;;;;;5050341;28;20025;-63
2023/01/17 12:54:12;;;;;;;21.60;14.07;;;;;;;;;;5051290;28;20435;-63
2023/01/17 12:56:45;;;;;;;23.98;13.88;;;;;;;;;;5051730;28;20029;-63
2023/01/17 12:59:25;;;;;;;21.17;13.20;;;;;;;;;;5051533;28;20029;-64
2023/01/17 13:01:56;;;;;;;26.15;14.52;;;;;;;;;;5051906;28;20514;-63
2023/01/17 13:04:34;;;;;;;21.38;12.48;;;;;;;;;;5051786;28;20131;-63
2023/01/17 13:07:04;;;;;;;28.13;14.13;;;;;;;;;;5050952;28;20025;-62
2023/01/17 13:09:34;;;;;;;26.73;13.60;;;;;;;;;;5050496;28;20032;-64
2023/01/17 13:12:03;;;;;;;24.75;14.07;;;;;;;;;;5050153;28;20055;-64
2023/01/17 13:14:29;;;;;;;25.55;14.27;;;;;;;;;;5050688;28;20037;-64
2023/01/17 13:16:57;;;;;;;25.75;13.95;;;;;;;;;;5051194;28;20037;-63
2023/01/17 13:19:32;;;;;;;27.20;15.82;;;;;;;;;;5050703;28;20116;-67
2023/01/17 13:21:58;;;;;;;28.23;15.10;;;;;;;;;;5052763;28;20037;-64
2023/01/17 13:24:32;;;;;;;26.13;14.52;;;;;;;;;;5070736;28;20507;-65
2023/01/17 13:27:17;;;;;;;25.92;15.68;;;;;;;;;;5071306;28;20025;-62
2023/01/17 13:29:46;;;;;;;26.48;14.98;;;;;;;;;;5071282;28;20032;-63
2023/01/17 13:32:31;;;;;;;26.13;14.93;;;;;;;;;;5073050;28;20032;-64
2023/01/17 13:35:00;;;;;;;27.98;13.90;;;;;;;;;;5062732;28;20129;-63
2023/01/17 13:37:50;;;;;;;25.10;14.40;;;;;;;;;;5051903;28;20047;-65
2023/01/17 13:40:36;;;;;;;26.10;14.93;;;;;;;;;;5050513;28;20025;-65
2023/01/17 13:43:11;;;;;;;23.10;14.43;;;;;;;;;;5050233;28;20528;-62
2023/01/17 13:45:37;;;;;;;26.10;14.63;;;;;;;;;;5050800;28;20110;-65
2023/01/17 13:48:24;;;;;;;26.17;14.68;;;;;;;;;;5049180;28;20029;-63
2023/01/17 13:50:56;;;;;;;25.83;14.82;;;;;;;;;;5048537;28;20040;-62
2023/01/17 13:53:30;;;;;;;21.63;14.48;;;;;;;;;;5050185;28;20417;-62
2023/01/17 13:56:14;;;;;;;25.70;15.65;;;;;;;;;;5049677;28;20032;-63
2023/01/17 13:58:53;;;;;;;24.58;15.02;;;;;;;;;;5050373;28;20032;-62
2023/01/17 14:01:22;;;;;;;24.02;14.27;;;;;;;;;;5051210;28;20029;-61
2023/01/17 14:03:51;;;;;;;24.33;14.15;;;;;;;;;;5052222;28;20556;-62
2023/01/17 14:06:29;;;;;;;24.05;13.48;;;;;;;;;;5053104;28;20459;-64
2023/01/17 14:09:00;;;;;;;22.35;12.20;;;;;;;;;;5053055;28;20025;-64
2023/01/17 14:11:26;;;;;;;24.27;13.52;;;;;;;;;;5052738;28;20107;-64
2023/01/17 14:13:52;;;;;;;26.00;13.35;;;;;;;;;;5052004;28;20447;-64
2023/01/17 14:16:21;;;;;;;23.27;14.15;;;;;;;;;;5052549;28;20071;-63
2023/01/17 14:18:48;;;;;;;22.13;13.00;;;;;;;;;;5051287;28;20037;-65
2023/01/17 14:21:19;;;;;;;21.10;13.40;;;;;;;;;;5052233;28;20082;-63
2023/01/17 14:24:04;;;;;;;22.75;12.45;;;;;;;;;;5069369;28;20029;-64
2023/01/17 14:26:43;;;;;;;22.52;13.18;;;;;;;;;;5071917;28;20024;-62
2023/01/17 14:29:27;;;;;;;24.65;13.65;;;;;;;;;;5070168;28;20550;-65
2023/01/17 14:32:05;;;;;;;20.77;12.90;;;;;;;;;;5070477;28;20028;-65
2023/01/17 14:34:31;;;;;;;22.00;12.70;;;;;;;;;;5070477;28;20074;-62
2023/01/17 14:37:36;;;;;;;22.02;12.65;;;;;;;;;;5071684;28;20518;-66
2023/01/17 14:40:02;;;;;;;20.40;11.52;;;;;;;;;;4993305;28;20030;-63
2023/01/17 14:42:30;;;;;;;21.70;12.48;;;;;;;;;;5009766;28;20034;-65
2023/01/17 14:45:04;;;;;;;22.20;12.52;;;;;;;;;;5039556;28;20032;-63
2023/01/17 14:47:32;;;;;;;22.08;12.00;;;;;;;;;;5071624;28;20036;-64
2023/01/17 14:50:16;;;;;;;19.95;11.43;;;;;;;;;;5071148;28;20142;-64
2023/01/17 14:52:43;;;;;;;23.92;13.05;;;;;;;;;;5069193;28;20040;-63
2023/01/17 14:55:15;;;;;;;20.40;12.43;;;;;;;;;;5059398;28;20075;-64
2023/01/17 14:57:41;;;;;;;23.25;12.98;;;;;;;;;;4712443;28;9999829;-63
2023/01/17 15:00:18;;;;;;;21.10;12.52;;;;;;;;;;5068030;28;20025;-63
2023/01/17 15:02:45;;;;;;;19.48;11.13;;;;;;;;;;5067630;28;20651;-63
2023/01/17 15:05:13;;;;;;;24.58;12.65;;;;;;;;;;5067850;28;20101;-63
2023/01/17 15:07:39;;;;;;;22.02;12.52;;;;;;;;;;5067804;28;20020;-64
2023/01/17 15:10:05;;;;;;;27.83;13.07;;;;;;;;;;5070502;28;20100;-64
2023/01/17 15:12:31;;;;;;;22.08;13.40;;;;;;;;;;5070746;28;20028;-64
2023/01/17 15:14:58;;;;;;;20.90;13.43;;;;;;;;;;5070364;28;20503;-63
2023/01/17 15:17:24;;;;;;;24.40;12.65;;;;;;;;;;5070631;28;20502;-64
2023/01/17 15:20:00;;;;;;;21.30;11.82;;;;;;;;;;5070837;28;20047;-65
2023/01/17 15:22:28;;;;;;;24.05;12.82;;;;;;;;;;5064410;28;20083;-64
2023/01/17 15:24:55;;;;;;;27.52;13.32;;;;;;;;;;5050750;28;20112;-64
2023/01/17 15:27:22;;;;;;;23.55;12.43;;;;;;;;;;5050753;28;20029;-63
2023/01/17 15:29:49;;;;;;;23.52;12.68;;;;;;;;;;5051453;28;20029;-62
2023/01/17 15:32:22;;;;;;;23.23;13.85;;;;;;;;;;5052005;28;20025;-66
2023/01/17 15:34:49;;;;;;;24.08;13.50;;;;;;;;;;5049885;28;20032;-64
2023/01/17 15:37:23;;;;;;;30.30;17.42;;;;;;;;;;5050272;28;20028;-64
2023/01/17 15:39:49;;;;;;;24.38;14.50;;;;;;;;;;5050628;28;20028;-58
2023/01/17 15:42:25;;;;;;;29.77;14.30;;;;;;;;;;5050109;28;20057;-63
2023/01/17 15:44:54;;;;;;;24.20;13.18;;;;;;;;;;5049784;28;20028;-65
2023/01/17 15:47:20;;;;;;;;;;;;;;;;;;5050329;28;20031;-65
2023/01/17 15:49:50;;;;;;;25.40;14.35;;;;;;;;;;5048620;28;19900;-65
2023/01/17 15:52:16;;;;;;;22.65;13.80;;;;;;;;;;5048539;28;20082;-63
2023/01/17 15:54:43;;;;;;;25.58;14.88;;;;;;;;;;5050490;28;20537;-64
2023/01/17 15:57:20;;;;;;;24.58;15.13;;;;;;;;;;5050530;28;20017;-65